Time,TemperatureF,DewpointF,PressureIn,WindDirection,WindDirectionDegrees,WindSpeedMPH,WindSpeedGustMPH,Humidity,HourlyPrecipIn,Conditions,Clouds,dailyrainin,SoftwareType,DateUTC
2013-09-02 00:01:00,78.0,75.8,29.91,SSW,204,5.0,10.0,93,0.00,,---,0.00,VWS V14.00,2013-09-02 04:01:00,
2013-09-02 00:02:00,77.9,75.7,29.91,SW,226,6.0,10.0,93,0.00,,---,0.00,VWS V14.00,2013-09-02 04:02:00,
2013-09-02 00:07:00,77.9,75.7,29.91,SW,220,5.0,12.0,93,0.00,,---,0.00,VWS V14.00,2013-09-02 04:07:00,
2013-09-02 00:12:00,77.8,75.6,29.91,SSW,202,4.0,12.0,93,0.00,,---,0.00,VWS V14.00,2013-09-02 04:12:00,
2013-09-02 00:17:00,77.8,75.6,29.91,SW,214,5.0,12.0,93,0.00,,---,0.00,VWS V14.00,2013-09-02 04:17:00,
2013-09-02 00:22:00,77.8,75.6,29.91,SSW,210,5.0,14.0,93,0.00,,---,0.00,VWS V14.00,2013-09-02 04:22:00,
2013-09-02 00:27:00,77.9,75.7,29.90,SW,217,8.0,14.0,93,0.00,,---,0.00,VWS V14.00,2013-09-02 04:27:00,
2013-09-02 00:32:00,77.9,75.7,29.90,SSW,206,9.0,11.0,93,0.00,,---,0.00,VWS V14.00,2013-09-02 04:32:00,
2013-09-02 00:37:00,77.9,75.7,29.91,SW,217,6.0,11.0,93,0.00,,---,0.00,VWS V14.00,2013-09-02 04:37:00,
2013-09-02 00:42:00,77.9,75.7,29.91,SW,218,4.0,11.0,93,0.00,,---,0.00,VWS V14.00,2013-09-02 04:42:00,
2013-09-02 00:47:00,77.9,75.7,29.91,SW,218,5.0,11.0,93,0.00,,---,0.00,VWS V14.00,2013-09-02 04:47:00,
2013-09-02 00:52:00,77.8,75.6,29.91,SW,224,8.0,11.0,93,0.00,,---,0.00,VWS V14.00,2013-09-02 04:52:00,
2013-09-02 00:57:00,77.8,75.6,29.91,WSW,237,5.0,11.0,93,0.00,,---,0.00,VWS V14.00,2013-09-02 04:57:00,
2013-09-02 01:02:00,77.9,75.7,29.91,WSW,250,6.0,11.0,93,0.00,,---,0.00,VWS V14.00,2013-09-02 05:02:00,
2013-09-02 01:07:00,78.0,75.8,29.91,WSW,245,9.0,11.0,93,0.00,,---,0.00,VWS V14.00,2013-09-02 05:07:00,
2013-09-02 01:12:00,78.0,75.8,29.91,WSW,255,2.0,11.0,93,0.00,,---,0.00,VWS V14.00,2013-09-02 05:12:00,
2013-09-02 01:17:00,78.0,75.8,29.91,SW,227,5.0,11.0,93,0.00,,---,0.00,VWS V14.00,2013-09-02 05:17:00,
2013-09-02 01:22:00,78.0,75.8,29.91,SW,236,4.0,11.0,93,0.00,,---,0.00,VWS V14.00,2013-09-02 05:22:00,
2013-09-02 01:27:00,78.0,75.8,29.91,WSW,255,1.0,11.0,93,0.00,,---,0.00,VWS V14.00,2013-09-02 05:27:00,
2013-09-02 01:32:00,78.0,75.8,29.90,SW,216,3.0,7.0,93,0.00,,---,0.00,VWS V14.00,2013-09-02 05:32:00,
2013-09-02 01:37:00,78.0,75.8,29.90,SSW,202,3.0,9.0,93,0.00,,---,0.00,VWS V14.00,2013-09-02 05:37:00,
2013-09-02 01:42:00,77.9,75.7,29.89,SW,219,5.0,10.0,93,0.00,,---,0.00,VWS V14.00,2013-09-02 05:42:00,
2013-09-02 01:47:00,77.8,75.6,29.89,SSW,200,5.0,10.0,93,0.00,,---,0.00,VWS V14.00,2013-09-02 05:47:00,
2013-09-02 01:52:00,77.8,75.3,29.89,SW,229,3.0,10.0,92,0.00,,---,0.00,VWS V14.00,2013-09-02 05:52:00,
2013-09-02 01:57:00,77.8,75.3,29.90,West,260,7.0,10.0,92,0.00,,---,0.00,VWS V14.00,2013-09-02 05:57:00,
2013-09-02 02:02:00,77.9,75.4,29.89,West,261,5.0,6.0,92,0.00,,---,0.00,VWS V14.00,2013-09-02 06:02:00,
2013-09-02 02:07:00,77.7,75.2,29.89,WSW,240,3.0,7.0,92,0.00,,---,0.00,VWS V14.00,2013-09-02 06:07:00,
2013-09-02 02:12:00,77.5,75.0,29.89,WSW,246,3.0,7.0,92,0.00,,---,0.00,VWS V14.00,2013-09-02 06:12:00,
2013-09-02 02:17:00,77.3,74.8,29.89,WSW,245,0.0,7.0,92,0.00,,---,0.00,VWS V14.00,2013-09-02 06:17:00,
2013-09-02 02:22:00,77.1,74.6,29.89,WSW,238,0.0,7.0,92,0.00,,---,0.00,VWS V14.00,2013-09-02 06:22:00,
2013-09-02 02:27:00,77.0,74.8,29.88,South,185,5.0,11.0,93,0.00,,---,0.00,VWS V14.00,2013-09-02 06:27:00,
2013-09-02 02:32:00,77.0,74.8,29.88,SSW,204,3.0,6.0,93,0.00,,---,0.00,VWS V14.00,2013-09-02 06:32:00,
2013-09-02 02:37:00,77.1,74.9,29.88,South,190,4.0,7.0,93,0.00,,---,0.00,VWS V14.00,2013-09-02 06:37:00,
2013-09-02 02:42:00,77.2,75.0,29.88,South,183,3.0,7.0,93,0.00,,---,0.00,VWS V14.00,2013-09-02 06:42:00,
2013-09-02 02:46:00,77.3,75.1,29.87,South,184,5.0,7.0,93,0.00,,---,0.00,VWS V14.00,2013-09-02 06:46:00,
2013-09-02 02:51:00,77.3,75.1,29.87,South,182,4.0,7.0,93,0.00,,---,0.00,VWS V14.00,2013-09-02 06:51:00,
2013-09-02 02:56:00,77.2,75.0,29.87,South,185,4.0,7.0,93,0.00,,---,0.00,VWS V14.00,2013-09-02 06:56:00,
2013-09-02 03:01:00,77.2,75.0,29.88,South,190,4.0,8.0,93,0.00,,---,0.00,VWS V14.00,2013-09-02 07:01:00,
2013-09-02 03:06:00,77.1,74.9,29.88,SSW,202,5.0,8.0,93,0.00,,---,0.00,VWS V14.00,2013-09-02 07:06:00,
2013-09-02 03:11:00,77.1,74.9,29.88,SSW,208,4.0,9.0,93,0.00,,---,0.00,VWS V14.00,2013-09-02 07:11:00,
2013-09-02 03:16:00,77.0,74.8,29.88,SSW,199,4.0,9.0,93,0.00,,---,0.00,VWS V14.00,2013-09-02 07:16:00,
2013-09-02 03:21:00,77.0,74.8,29.88,SSW,206,5.0,11.0,93,0.00,,---,0.00,VWS V14.00,2013-09-02 07:21:00,
2013-09-02 03:26:00,77.1,74.9,29.88,SSW,204,5.0,11.0,93,0.00,,---,0.00,VWS V14.00,2013-09-02 07:26:00,
2013-09-02 03:31:00,77.0,74.8,29.88,SSW,198,4.0,7.0,93,0.00,,---,0.00,VWS V14.00,2013-09-02 07:31:00,
2013-09-02 03:36:00,77.0,74.8,29.88,SSW,199,4.0,8.0,93,0.00,,---,0.00,VWS V14.00,2013-09-02 07:36:00,
2013-09-02 03:41:00,77.0,74.8,29.88,SW,216,4.0,8.0,93,0.00,,---,0.00,VWS V14.00,2013-09-02 07:41:00,
2013-09-02 03:46:00,77.0,74.8,29.88,SW,222,5.0,8.0,93,0.00,,---,0.00,VWS V14.00,2013-09-02 07:46:00,
2013-09-02 03:51:00,77.0,74.8,29.88,SSW,200,7.0,10.0,93,0.00,,---,0.00,VWS V14.00,2013-09-02 07:51:00,
2013-09-02 03:56:00,77.2,75.0,29.88,SSW,209,4.0,10.0,93,0.00,,---,0.00,VWS V14.00,2013-09-02 07:56:00,
2013-09-02 04:01:00,77.3,75.1,29.88,SSW,206,6.0,9.0,93,0.00,,---,0.00,VWS V14.00,2013-09-02 08:01:00,
2013-09-02 04:06:00,77.3,75.1,29.88,SSW,211,6.0,9.0,93,0.00,,---,0.00,VWS V14.00,2013-09-02 08:06:00,
2013-09-02 04:11:00,77.5,75.3,29.88,SW,231,6.0,9.0,93,0.00,,---,0.00,VWS V14.00,2013-09-02 08:11:00,
2013-09-02 04:16:00,77.6,75.1,29.88,WSW,239,3.0,9.0,92,0.00,,---,0.00,VWS V14.00,2013-09-02 08:16:00,
2013-09-02 04:21:00,77.6,75.1,29.88,WSW,244,5.0,9.0,92,0.00,,---,0.00,VWS V14.00,2013-09-02 08:21:00,
2013-09-02 04:26:00,77.6,75.4,29.88,WSW,241,0.0,9.0,93,0.00,,---,0.00,VWS V14.00,2013-09-02 08:26:00,
2013-09-02 04:31:00,77.5,75.3,29.88,SSW,212,3.0,5.0,93,0.00,,---,0.00,VWS V14.00,2013-09-02 08:31:00,
2013-09-02 04:36:00,77.4,75.2,29.88,SSW,210,0.0,5.0,93,0.00,,---,0.00,VWS V14.00,2013-09-02 08:36:00,
2013-09-02 04:41:00,77.3,75.1,29.88,SSW,206,1.0,6.0,93,0.00,,---,0.00,VWS V14.00,2013-09-02 08:41:00,
2013-09-02 04:46:00,77.3,75.1,29.88,SW,218,4.0,6.0,93,0.00,,---,0.00,VWS V14.00,2013-09-02 08:46:00,
2013-09-02 04:51:00,77.2,75.0,29.88,SSW,199,5.0,6.0,93,0.00,,---,0.00,VWS V14.00,2013-09-02 08:51:00,
2013-09-02 04:56:00,77.3,75.1,29.87,SSW,206,3.0,6.0,93,0.00,,---,0.00,VWS V14.00,2013-09-02 08:56:00,
2013-09-02 05:01:00,77.2,75.0,29.88,SSW,204,3.0,5.0,93,0.00,,---,0.00,VWS V14.00,2013-09-02 09:01:00,
2013-09-02 05:06:00,77.2,75.0,29.88,SSW,206,0.0,5.0,93,0.00,,---,0.00,VWS V14.00,2013-09-02 09:06:00,
2013-09-02 05:11:00,77.3,75.1,29.88,SSW,206,0.0,5.0,93,0.00,,---,0.00,VWS V14.00,2013-09-02 09:11:00,
2013-09-02 05:16:00,77.3,75.1,29.88,SSW,206,3.0,5.0,93,0.00,,---,0.00,VWS V14.00,2013-09-02 09:16:00,
2013-09-02 05:21:00,77.3,75.1,29.88,SSW,206,0.0,5.0,93,0.00,,---,0.00,VWS V14.00,2013-09-02 09:21:00,
2013-09-02 05:26:00,77.3,75.1,29.88,SSW,206,0.0,5.0,93,0.00,,---,0.00,VWS V14.00,2013-09-02 09:26:00,
2013-09-02 05:31:00,77.3,75.4,29.88,SSW,202,5.0,8.0,94,0.73,,---,0.05,VWS V14.00,2013-09-02 09:31:00,
2013-09-02 05:36:00,77.3,75.4,29.88,SW,231,4.0,8.0,94,0.12,,---,0.06,VWS V14.00,2013-09-02 09:36:00,
2013-09-02 05:41:00,77.2,75.7,29.88,WSW,237,4.0,8.0,95,0.06,,---,0.06,VWS V14.00,2013-09-02 09:41:00,
2013-09-02 05:46:00,77.0,75.5,29.87,SW,215,0.0,8.0,95,0.04,,---,0.06,VWS V14.00,2013-09-02 09:46:00,
2013-09-02 05:51:00,76.9,75.4,29.87,SSW,208,0.0,8.0,95,0.00,,---,0.06,VWS V14.00,2013-09-02 09:51:00,
2013-09-02 05:56:00,76.8,75.3,29.87,SSW,201,0.0,8.0,95,0.00,,---,0.06,VWS V14.00,2013-09-02 09:56:00,
2013-09-02 06:01:00,76.7,75.2,29.88,SSW,192,0.0,0.0,95,0.00,,---,0.06,VWS V14.00,2013-09-02 10:01:00,
2013-09-02 06:06:00,76.7,75.5,29.88,SSW,199,3.0,4.0,96,0.00,,---,0.06,VWS V14.00,2013-09-02 10:06:00,
2013-09-02 06:11:00,76.7,75.5,29.88,SW,215,0.0,5.0,96,0.00,,---,0.06,VWS V14.00,2013-09-02 10:11:00,
2013-09-02 06:16:00,76.7,75.5,29.87,SW,216,0.0,5.0,96,0.00,,---,0.06,VWS V14.00,2013-09-02 10:16:00,
2013-09-02 06:21:00,76.7,75.5,29.88,SSW,210,0.0,5.0,96,0.00,,---,0.06,VWS V14.00,2013-09-02 10:21:00,
2013-09-02 06:26:00,76.7,75.5,29.88,South,181,1.0,5.0,96,0.00,,---,0.06,VWS V14.00,2013-09-02 10:26:00,
2013-09-02 06:31:00,76.7,75.5,29.89,SSW,197,0.0,0.0,96,0.00,,---,0.06,VWS V14.00,2013-09-02 10:31:00,
2013-09-02 06:36:00,76.7,75.5,29.89,SSW,197,0.0,0.0,96,0.00,,---,0.06,VWS V14.00,2013-09-02 10:36:00,
2013-09-02 06:41:00,76.7,75.5,29.88,SSW,197,0.0,0.0,96,0.00,,---,0.06,VWS V14.00,2013-09-02 10:41:00,
2013-09-02 06:46:00,76.7,75.5,29.88,WSW,251,2.0,3.0,96,0.00,,---,0.06,VWS V14.00,2013-09-02 10:46:00,
2013-09-02 06:51:00,76.7,75.5,29.88,SW,235,4.0,5.0,96,0.00,,---,0.06,VWS V14.00,2013-09-02 10:51:00,
2013-09-02 06:56:00,76.7,75.5,29.88,SW,233,7.0,8.0,96,0.00,,---,0.06,VWS V14.00,2013-09-02 10:56:00,
2013-09-02 07:01:00,76.9,75.7,29.88,SW,225,4.0,6.0,96,0.00,,---,0.06,VWS V14.00,2013-09-02 11:01:00,
2013-09-02 07:06:00,76.9,75.7,29.88,SW,214,5.0,8.0,96,0.00,,---,0.06,VWS V14.00,2013-09-02 11:06:00,
2013-09-02 07:11:00,76.9,75.7,29.88,SSW,204,2.0,8.0,96,0.00,,---,0.06,VWS V14.00,2013-09-02 11:11:00,
2013-09-02 07:16:00,77.0,75.8,29.88,SSW,210,4.0,8.0,96,0.00,,---,0.06,VWS V14.00,2013-09-02 11:16:00,
2013-09-02 07:21:00,77.0,75.8,29.88,SSW,210,3.0,8.0,96,0.00,,---,0.06,VWS V14.00,2013-09-02 11:21:00,
2013-09-02 07:26:00,77.0,75.8,29.89,SW,232,2.0,8.0,96,0.00,,---,0.06,VWS V14.00,2013-09-02 11:26:00,
2013-09-02 07:31:00,77.1,75.9,29.89,WSW,239,0.0,4.0,96,0.00,,---,0.06,VWS V14.00,2013-09-02 11:31:00,
2013-09-02 07:36:00,77.1,75.9,29.89,WSW,237,0.0,4.0,96,0.00,,---,0.06,VWS V14.00,2013-09-02 11:36:00,
2013-09-02 07:41:00,77.1,75.9,29.89,WSW,239,0.0,4.0,96,0.00,,---,0.06,VWS V14.00,2013-09-02 11:41:00,
2013-09-02 07:46:00,77.1,75.9,29.89,WSW,240,0.0,4.0,96,0.00,,---,0.06,VWS V14.00,2013-09-02 11:46:00,
2013-09-02 07:51:00,77.2,76.0,29.89,SW,226,3.0,6.0,96,0.00,,---,0.06,VWS V14.00,2013-09-02 11:51:00,
2013-09-02 07:56:00,77.2,76.0,29.89,SW,225,4.0,6.0,96,0.00,,---,0.06,VWS V14.00,2013-09-02 11:56:00,
2013-09-02 08:01:00,77.3,76.1,29.89,WSW,252,0.0,3.0,96,0.00,,---,0.06,VWS V14.00,2013-09-02 12:01:00,
2013-09-02 08:06:00,77.4,76.2,29.90,WSW,237,2.0,4.0,96,0.00,,---,0.06,VWS V14.00,2013-09-02 12:06:00,
2013-09-02 08:11:00,77.5,76.3,29.90,WSW,245,4.0,4.0,96,0.00,,---,0.06,VWS V14.00,2013-09-02 12:11:00,
2013-09-02 08:16:00,77.5,76.3,29.90,SW,224,0.0,6.0,96,0.00,,---,0.06,VWS V14.00,2013-09-02 12:16:00,
2013-09-02 08:21:00,77.6,76.4,29.90,WSW,244,1.0,6.0,96,0.00,,---,0.06,VWS V14.00,2013-09-02 12:21:00,
2013-09-02 08:26:00,77.8,76.6,29.90,WSW,253,3.0,7.0,96,0.00,,---,0.06,VWS V14.00,2013-09-02 12:26:00,
2013-09-02 08:31:00,77.9,76.7,29.90,West,264,3.0,9.0,96,0.00,,---,0.06,VWS V14.00,2013-09-02 12:31:00,
2013-09-02 08:36:00,78.1,76.9,29.90,West,272,4.0,9.0,96,0.00,,---,0.06,VWS V14.00,2013-09-02 12:36:00,
2013-09-02 08:41:00,78.3,77.1,29.90,West,273,3.0,9.0,96,0.00,,---,0.06,VWS V14.00,2013-09-02 12:41:00,
2013-09-02 08:46:00,78.6,77.4,29.90,West,278,0.0,9.0,96,0.00,,---,0.06,VWS V14.00,2013-09-02 12:46:00,
2013-09-02 08:51:00,78.6,77.1,29.90,West,273,4.0,9.0,95,0.00,,---,0.06,VWS V14.00,2013-09-02 12:51:00,
2013-09-02 08:56:00,78.9,77.3,29.90,WSW,256,5.0,9.0,95,0.00,,---,0.06,VWS V14.00,2013-09-02 12:56:00,
2013-09-02 09:01:00,79.1,77.6,29.91,WSW,256,3.0,7.0,95,0.00,,---,0.06,VWS V14.00,2013-09-02 13:01:00,
2013-09-02 09:06:00,79.5,77.9,29.91,WSW,239,2.0,7.0,95,0.00,,---,0.06,VWS V14.00,2013-09-02 13:06:00,
2013-09-02 09:11:00,79.7,77.8,29.91,WSW,239,5.0,9.0,94,0.00,,---,0.06,VWS V14.00,2013-09-02 13:11:00,
2013-09-02 09:16:00,80.0,77.8,29.91,West,266,7.0,10.0,93,0.00,,---,0.06,VWS V14.00,2013-09-02 13:16:00,
2013-09-02 09:21:00,80.2,77.7,29.91,WSW,258,7.0,11.0,92,0.00,,---,0.06,VWS V14.00,2013-09-02 13:21:00,
2013-09-02 09:26:00,80.5,77.6,29.91,WSW,245,6.0,11.0,91,0.00,,---,0.06,VWS V14.00,2013-09-02 13:26:00,
2013-09-02 09:31:00,80.6,77.7,29.91,West,264,10.0,12.0,91,0.00,,---,0.06,VWS V14.00,2013-09-02 13:31:00,
2013-09-02 09:36:00,80.7,77.5,29.91,SW,226,7.0,18.0,90,0.00,,---,0.06,VWS V14.00,2013-09-02 13:36:00,
2013-09-02 09:41:00,80.9,77.7,29.91,West,260,5.0,18.0,90,0.00,,---,0.06,VWS V14.00,2013-09-02 13:41:00,
2013-09-02 09:46:00,81.3,78.1,29.91,WSW,241,8.0,18.0,90,0.00,,---,0.06,VWS V14.00,2013-09-02 13:46:00,
2013-09-02 09:51:00,81.6,78.1,29.91,WSW,237,9.0,18.0,89,0.00,,---,0.06,VWS V14.00,2013-09-02 13:51:00,
2013-09-02 09:56:00,81.8,78.2,29.92,WSW,249,9.0,18.0,89,0.00,,---,0.06,VWS V14.00,2013-09-02 13:56:00,
2013-09-02 10:01:00,81.9,78.0,29.91,WSW,247,9.0,11.0,88,0.00,,---,0.06,VWS V14.00,2013-09-02 14:01:00,
2013-09-02 10:06:00,82.1,78.5,29.91,West,280,4.0,11.0,89,0.00,,---,0.06,VWS V14.00,2013-09-02 14:06:00,
2013-09-02 10:11:00,82.6,78.3,29.91,West,266,7.0,11.0,87,0.00,,---,0.06,VWS V14.00,2013-09-02 14:11:00,
2013-09-02 10:16:00,82.9,78.3,29.92,West,272,7.0,11.0,86,0.00,,---,0.06,VWS V14.00,2013-09-02 14:16:00,
2013-09-02 10:21:00,83.0,78.4,29.92,West,278,10.0,11.0,86,0.00,,---,0.06,VWS V14.00,2013-09-02 14:21:00,
2013-09-02 10:26:00,83.1,78.5,29.92,WSW,247,4.0,11.0,86,0.00,,---,0.06,VWS V14.00,2013-09-02 14:26:00,
2013-09-02 10:31:00,83.5,78.5,29.92,West,279,3.0,10.0,85,0.00,,---,0.06,VWS V14.00,2013-09-02 14:31:00,
2013-09-02 10:36:00,83.9,78.9,29.92,West,270,11.0,11.0,85,0.00,,---,0.06,VWS V14.00,2013-09-02 14:36:00,
2013-09-02 10:41:00,84.5,79.1,29.92,WSW,239,10.0,12.0,84,0.00,,---,0.06,VWS V14.00,2013-09-02 14:41:00,
2013-09-02 10:46:00,84.5,78.8,29.92,WSW,243,5.0,13.0,83,0.00,,---,0.06,VWS V14.00,2013-09-02 14:46:00,
2013-09-02 10:51:00,84.8,78.7,29.91,WSW,240,4.0,13.0,82,0.00,,---,0.06,VWS V14.00,2013-09-02 14:51:00,
2013-09-02 10:56:00,84.8,78.3,29.91,WSW,243,6.0,13.0,81,0.00,,---,0.06,VWS V14.00,2013-09-02 14:56:00,
2013-09-02 11:01:00,85.2,79.1,29.91,South,191,4.0,10.0,82,0.00,,---,0.06,VWS V14.00,2013-09-02 15:01:00,
2013-09-02 11:06:00,86.0,79.5,29.91,SW,223,4.0,10.0,81,0.00,,---,0.06,VWS V14.00,2013-09-02 15:06:00,
2013-09-02 11:11:00,86.1,79.2,29.91,SW,215,5.0,10.0,80,0.00,,---,0.06,VWS V14.00,2013-09-02 15:11:00,
2013-09-02 11:16:00,85.6,78.3,29.91,WSW,246,10.0,14.0,79,0.00,,---,0.06,VWS V14.00,2013-09-02 15:16:00,
2013-09-02 11:21:00,85.2,78.3,29.91,WSW,240,4.0,14.0,80,0.00,,---,0.06,VWS V14.00,2013-09-02 15:21:00,
2013-09-02 11:26:00,85.6,78.7,29.91,SW,227,9.0,14.0,80,0.00,,---,0.06,VWS V14.00,2013-09-02 15:26:00,
2013-09-02 11:31:00,83.0,76.6,29.91,WNW,285,5.0,19.0,81,0.37,,---,0.10,VWS V14.00,2013-09-02 15:31:00,
2013-09-02 11:36:00,82.0,77.1,29.91,WNW,285,4.0,19.0,85,0.09,,---,0.10,VWS V14.00,2013-09-02 15:36:00,
2013-09-02 11:41:00,82.4,77.8,29.91,West,277,5.0,19.0,86,0.05,,---,0.10,VWS V14.00,2013-09-02 15:41:00,
2013-09-02 11:46:00,82.9,78.6,29.91,West,269,5.0,19.0,87,0.04,,---,0.10,VWS V14.00,2013-09-02 15:46:00,
2013-09-02 11:51:00,83.3,79.7,29.90,West,264,5.0,19.0,89,0.00,,---,0.10,VWS V14.00,2013-09-02 15:51:00,
2013-09-02 11:56:00,83.5,79.6,29.91,West,281,2.0,19.0,88,0.00,,---,0.10,VWS V14.00,2013-09-02 15:56:00,
2013-09-02 12:01:00,83.6,79.7,29.90,West,281,0.0,4.0,88,0.00,,---,0.10,VWS V14.00,2013-09-02 16:01:00,
2013-09-02 12:06:00,83.8,79.2,29.91,West,265,6.0,9.0,86,0.00,,---,0.10,VWS V14.00,2013-09-02 16:06:00,
2013-09-02 12:11:00,84.3,80.4,29.90,West,274,1.0,9.0,88,0.00,,---,0.10,VWS V14.00,2013-09-02 16:11:00,
2013-09-02 12:16:00,85.0,80.3,29.90,WNW,287,3.0,9.0,86,0.00,,---,0.10,VWS V14.00,2013-09-02 16:16:00,
2013-09-02 12:21:00,85.6,79.5,29.90,NW,325,4.0,9.0,82,0.00,,---,0.10,VWS V14.00,2013-09-02 16:21:00,
2013-09-02 12:26:00,85.9,79.0,29.90,SW,231,6.0,9.0,80,0.00,,---,0.10,VWS V14.00,2013-09-02 16:26:00,
2013-09-02 12:31:00,85.2,77.9,29.90,SW,227,7.0,7.0,79,0.00,,---,0.10,VWS V14.00,2013-09-02 16:31:00,
2013-09-02 12:36:00,83.6,76.4,29.90,South,185,7.0,14.0,79,0.00,,---,0.10,VWS V14.00,2013-09-02 16:36:00,
2013-09-02 12:41:00,82.5,76.8,29.90,SW,220,9.0,14.0,83,0.00,,---,0.10,VWS V14.00,2013-09-02 16:41:00,
2013-09-02 12:46:00,81.6,76.7,29.90,SW,220,7.0,14.0,85,0.00,,---,0.11,VWS V14.00,2013-09-02 16:46:00,
2013-09-02 12:51:00,80.6,75.7,29.90,SW,218,2.0,14.0,85,0.12,,---,0.12,VWS V14.00,2013-09-02 16:51:00,
2013-09-02 12:56:00,80.5,76.3,29.89,South,172,4.0,14.0,87,0.06,,---,0.12,VWS V14.00,2013-09-02 16:56:00,
2013-09-02 13:01:00,80.8,76.6,29.90,SSE,162,4.0,5.0,87,0.04,,---,0.12,VWS V14.00,2013-09-02 17:01:00,
2013-09-02 13:06:00,81.1,77.6,29.90,SSE,166,2.0,5.0,89,0.00,,---,0.12,VWS V14.00,2013-09-02 17:06:00,
2013-09-02 13:11:00,81.5,77.9,29.89,SSE,166,2.0,5.0,89,0.00,,---,0.12,VWS V14.00,2013-09-02 17:11:00,
2013-09-02 13:16:00,82.0,78.1,29.89,SSE,154,4.0,5.0,88,0.00,,---,0.12,VWS V14.00,2013-09-02 17:16:00,
2013-09-02 13:21:00,82.6,78.7,29.89,South,174,4.0,6.0,88,0.00,,---,0.12,VWS V14.00,2013-09-02 17:21:00,
2013-09-02 13:26:00,83.3,78.0,29.88,SE,142,7.0,10.0,84,0.00,,---,0.12,VWS V14.00,2013-09-02 17:26:00,
2013-09-02 13:31:00,83.9,78.6,29.88,SSE,166,5.0,7.0,84,0.00,,---,0.12,VWS V14.00,2013-09-02 17:31:00,
2013-09-02 13:36:00,83.8,78.1,29.88,SSE,160,7.0,12.0,83,0.00,,---,0.12,VWS V14.00,2013-09-02 17:36:00,
2013-09-02 13:41:00,84.1,78.8,29.88,South,180,6.0,12.0,84,0.00,,---,0.12,VWS V14.00,2013-09-02 17:41:00,
2013-09-02 13:46:00,84.5,79.1,29.88,SSE,167,7.0,12.0,84,0.00,,---,0.12,VWS V14.00,2013-09-02 17:46:00,
2013-09-02 13:51:00,84.4,78.7,29.87,SSE,168,7.0,12.0,83,0.00,,---,0.12,VWS V14.00,2013-09-02 17:51:00,
2013-09-02 13:56:00,86.0,79.9,29.87,SW,220,5.0,12.0,82,0.00,,---,0.12,VWS V14.00,2013-09-02 17:56:00,
2013-09-02 14:01:00,86.6,78.5,29.87,SSE,159,12.0,14.0,77,0.00,,---,0.12,VWS V14.00,2013-09-02 18:01:00,
2013-09-02 14:06:00,86.4,78.3,29.86,SSE,165,10.0,18.0,77,0.00,,---,0.12,VWS V14.00,2013-09-02 18:06:00,
2013-09-02 14:11:00,85.7,78.4,29.86,South,180,8.0,18.0,79,0.00,,---,0.12,VWS V14.00,2013-09-02 18:11:00,
2013-09-02 14:16:00,86.1,79.6,29.86,South,180,16.0,18.0,81,0.00,,---,0.12,VWS V14.00,2013-09-02 18:16:00,
2013-09-02 14:20:00,85.7,79.6,29.86,SSW,195,9.0,18.0,82,0.00,,---,0.12,VWS V14.00,2013-09-02 18:20:00,
2013-09-02 14:25:00,85.4,79.3,29.85,SSW,198,10.0,18.0,82,0.00,,---,0.12,VWS V14.00,2013-09-02 18:25:00,
2013-09-02 14:30:00,84.5,78.8,29.85,SSW,213,10.0,12.0,83,0.00,,---,0.12,VWS V14.00,2013-09-02 18:30:00,
2013-09-02 14:35:00,83.9,78.6,29.85,SSW,202,7.0,12.0,84,0.00,,---,0.12,VWS V14.00,2013-09-02 18:35:00,
2013-09-02 14:40:00,83.8,78.4,29.85,WSW,240,10.0,12.0,84,0.00,,---,0.12,VWS V14.00,2013-09-02 18:40:00,
2013-09-02 14:45:00,83.9,78.2,29.85,SSW,207,6.0,12.0,83,0.00,,---,0.12,VWS V14.00,2013-09-02 18:45:00,
2013-09-02 14:50:00,85.3,78.8,29.85,SSW,202,4.0,13.0,81,0.00,,---,0.12,VWS V14.00,2013-09-02 18:50:00,
2013-09-02 14:55:00,86.2,78.5,29.84,South,187,9.0,13.0,78,0.00,,---,0.12,VWS V14.00,2013-09-02 18:55:00,
2013-09-02 15:00:00,86.7,79.0,29.84,SSW,197,4.0,8.0,78,0.00,,---,0.12,VWS V14.00,2013-09-02 19:00:00,
2013-09-02 15:05:00,86.0,78.3,29.84,SSW,194,9.0,14.0,78,0.00,,---,0.12,VWS V14.00,2013-09-02 19:05:00,
2013-09-02 15:10:00,85.1,78.6,29.85,SW,231,12.0,16.0,81,0.00,,---,0.13,VWS V14.00,2013-09-02 19:10:00,
2013-09-02 15:15:00,79.8,72.7,29.84,South,189,19.0,23.0,79,1.45,,---,0.20,VWS V14.00,2013-09-02 19:15:00,
2013-09-02 15:20:00,76.8,71.6,29.84,South,187,8.0,23.0,84,0.18,,---,0.21,VWS V14.00,2013-09-02 19:20:00,
2013-09-02 15:25:00,76.4,72.9,29.83,SE,135,7.0,23.0,89,0.76,,---,0.28,VWS V14.00,2013-09-02 19:25:00,
2013-09-02 15:30:00,77.1,74.6,29.84,West,261,6.0,7.0,92,0.12,,---,0.28,VWS V14.00,2013-09-02 19:30:00,
2013-09-02 15:35:00,77.5,74.7,29.84,WSW,251,1.0,7.0,91,0.06,,---,0.28,VWS V14.00,2013-09-02 19:35:00,
2013-09-02 15:40:00,78.0,75.5,29.84,SE,127,3.0,7.0,92,0.04,,---,0.28,VWS V14.00,2013-09-02 19:40:00,
2013-09-02 15:45:00,78.7,76.5,29.83,SE,127,0.0,7.0,93,0.00,,---,0.28,VWS V14.00,2013-09-02 19:45:00,
2013-09-02 15:50:00,79.4,77.2,29.83,SE,127,2.0,7.0,93,0.00,,---,0.28,VWS V14.00,2013-09-02 19:50:00,
2013-09-02 15:55:00,80.2,77.7,29.83,ENE,70,3.0,7.0,92,0.00,,---,0.28,VWS V14.00,2013-09-02 19:55:00,
2013-09-02 16:00:00,81.1,78.9,29.82,East,92,2.0,6.0,93,0.00,,---,0.28,VWS V14.00,2013-09-02 20:00:00,
2013-09-02 16:05:00,81.8,79.2,29.82,East,100,2.0,6.0,92,0.00,,---,0.28,VWS V14.00,2013-09-02 20:05:00,
2013-09-02 16:10:00,82.5,80.3,29.83,ESE,108,1.0,6.0,93,0.00,,---,0.28,VWS V14.00,2013-09-02 20:10:00,
2013-09-02 16:15:00,83.5,81.3,29.83,ESE,105,3.0,6.0,93,0.00,,---,0.28,VWS V14.00,2013-09-02 20:15:00,
2013-09-02 16:20:00,84.3,81.4,29.83,SSE,152,0.0,6.0,91,0.00,,---,0.28,VWS V14.00,2013-09-02 20:20:00,
2013-09-02 16:25:00,85.1,81.2,29.82,South,188,3.0,6.0,88,0.00,,---,0.28,VWS V14.00,2013-09-02 20:25:00,
2013-09-02 16:30:00,86.1,80.7,29.82,South,180,4.0,5.0,84,0.00,,---,0.28,VWS V14.00,2013-09-02 20:30:00,
2013-09-02 16:35:00,87.0,81.6,29.82,SSW,211,3.0,8.0,84,0.00,,---,0.28,VWS V14.00,2013-09-02 20:35:00,
2013-09-02 16:40:00,87.6,80.3,29.82,South,191,6.0,11.0,79,0.00,,---,0.28,VWS V14.00,2013-09-02 20:40:00,
2013-09-02 16:45:00,88.1,79.6,29.82,WSW,238,8.0,11.0,76,0.00,,---,0.28,VWS V14.00,2013-09-02 20:45:00,
2013-09-02 16:50:00,88.2,80.1,29.82,SW,231,6.0,11.0,77,0.00,,---,0.28,VWS V14.00,2013-09-02 20:50:00,
2013-09-02 16:55:00,88.1,80.0,29.82,SW,231,6.0,11.0,77,0.00,,---,0.28,VWS V14.00,2013-09-02 20:55:00,
2013-09-02 17:00:00,87.8,80.1,29.82,SW,231,4.0,7.0,78,0.00,,---,0.28,VWS V14.00,2013-09-02 21:00:00,
2013-09-02 17:05:00,87.5,79.8,29.82,SSW,206,4.0,7.0,78,0.00,,---,0.28,VWS V14.00,2013-09-02 21:05:00,
2013-09-02 17:10:00,87.8,79.7,29.82,SW,233,3.0,9.0,77,0.00,,---,0.28,VWS V14.00,2013-09-02 21:10:00,
2013-09-02 17:15:00,88.2,80.1,29.82,South,190,8.0,10.0,77,0.00,,---,0.28,VWS V14.00,2013-09-02 21:15:00,
2013-09-02 17:20:00,88.1,79.6,29.82,SW,224,5.0,10.0,76,0.00,,---,0.28,VWS V14.00,2013-09-02 21:20:00,
2013-09-02 17:25:00,88.1,79.2,29.82,SW,227,5.0,10.0,75,0.00,,---,0.28,VWS V14.00,2013-09-02 21:25:00,
2013-09-02 17:30:00,87.7,79.6,29.82,SW,229,5.0,10.0,77,0.00,,---,0.28,VWS V14.00,2013-09-02 21:30:00,
2013-09-02 17:35:00,87.1,79.4,29.82,SSW,203,4.0,10.0,78,0.00,,---,0.28,VWS V14.00,2013-09-02 21:35:00,
2013-09-02 17:40:00,86.6,79.7,29.82,South,172,7.0,10.0,80,0.00,,---,0.28,VWS V14.00,2013-09-02 21:40:00,
2013-09-02 17:45:00,85.9,79.8,29.82,South,181,4.0,10.0,82,0.00,,---,0.28,VWS V14.00,2013-09-02 21:45:00,
2013-09-02 17:50:00,85.2,79.5,29.82,South,175,7.0,10.0,83,0.00,,---,0.28,VWS V14.00,2013-09-02 21:50:00,
2013-09-02 17:55:00,84.1,78.8,29.82,South,170,8.0,10.0,84,0.00,,---,0.28,VWS V14.00,2013-09-02 21:55:00,
2013-09-02 18:00:00,83.3,78.3,29.82,South,174,5.0,9.0,85,0.00,,---,0.28,VWS V14.00,2013-09-02 22:00:00,
2013-09-02 18:05:00,82.9,78.3,29.82,SSE,163,5.0,9.0,86,0.00,,---,0.28,VWS V14.00,2013-09-02 22:05:00,
2013-09-02 18:10:00,83.0,78.7,29.82,SSE,158,6.0,9.0,87,0.00,,---,0.28,VWS V14.00,2013-09-02 22:10:00,
2013-09-02 18:15:00,83.2,78.9,29.82,South,180,8.0,11.0,87,0.00,,---,0.28,VWS V14.00,2013-09-02 22:15:00,
2013-09-02 18:20:00,83.0,78.4,29.82,South,181,4.0,11.0,86,0.00,,---,0.28,VWS V14.00,2013-09-02 22:20:00,
2013-09-02 18:25:00,82.7,78.4,29.82,SSE,156,9.0,11.0,87,0.00,,---,0.28,VWS V14.00,2013-09-02 22:25:00,
2013-09-02 18:30:00,82.3,78.4,29.82,South,170,7.0,8.0,88,0.00,,---,0.28,VWS V14.00,2013-09-02 22:30:00,
2013-09-02 18:35:00,81.9,78.0,29.81,South,179,6.0,8.0,88,0.00,,---,0.28,VWS V14.00,2013-09-02 22:35:00,
2013-09-02 18:40:00,81.7,78.2,29.81,South,174,5.0,9.0,89,0.00,,---,0.28,VWS V14.00,2013-09-02 22:40:00,
2013-09-02 18:45:00,81.4,77.8,29.82,South,183,8.0,12.0,89,0.00,,---,0.28,VWS V14.00,2013-09-02 22:45:00,
2013-09-02 18:50:00,81.0,77.8,29.82,South,185,8.0,12.0,90,0.00,,---,0.28,VWS V14.00,2013-09-02 22:50:00,
2013-09-02 18:55:00,80.9,77.7,29.82,South,187,9.0,14.0,90,0.00,,---,0.28,VWS V14.00,2013-09-02 22:55:00,
2013-09-02 19:00:00,80.7,77.5,29.82,South,185,8.0,12.0,90,0.00,,---,0.28,VWS V14.00,2013-09-02 23:00:00,
2013-09-02 19:05:00,80.7,77.8,29.83,South,191,6.0,13.0,91,0.00,,---,0.28,VWS V14.00,2013-09-02 23:05:00,
2013-09-02 19:10:00,80.6,77.7,29.83,SSW,196,6.0,13.0,91,0.00,,---,0.28,VWS V14.00,2013-09-02 23:10:00,
2013-09-02 19:15:00,80.5,77.6,29.83,SW,215,6.0,13.0,91,0.00,,---,0.28,VWS V14.00,2013-09-02 23:15:00,
2013-09-02 19:20:00,80.4,77.2,29.83,SSW,199,8.0,13.0,90,0.00,,---,0.28,VWS V14.00,2013-09-02 23:20:00,
2013-09-02 19:25:00,80.4,77.2,29.83,SSW,208,4.0,13.0,90,0.00,,---,0.28,VWS V14.00,2013-09-02 23:25:00,
2013-09-02 19:30:00,80.3,77.1,29.84,SW,227,4.0,6.0,90,0.00,,---,0.28,VWS V14.00,2013-09-02 23:30:00,
2013-09-02 19:35:00,80.3,77.1,29.85,WSW,245,6.0,9.0,90,0.00,,---,0.28,VWS V14.00,2013-09-02 23:35:00,
2013-09-02 19:40:00,80.3,76.4,29.85,WNW,286,10.0,12.0,88,0.00,,---,0.28,VWS V14.00,2013-09-02 23:40:00,
2013-09-02 19:45:00,78.9,72.9,29.85,WNW,291,12.0,17.0,82,0.00,,---,0.28,VWS V14.00,2013-09-02 23:45:00,
2013-09-02 19:50:00,77.5,72.6,29.85,West,276,7.0,17.0,85,0.00,,---,0.28,VWS V14.00,2013-09-02 23:50:00,
2013-09-02 19:55:00,76.6,71.8,29.85,WNW,289,3.0,17.0,85,0.00,,---,0.28,VWS V14.00,2013-09-02 23:55:00,
2013-09-02 20:00:00,76.0,71.9,29.85,WNW,287,0.0,4.0,87,0.00,,---,0.28,VWS V14.00,2013-09-03 00:00:00,
2013-09-02 20:05:00,75.8,72.3,29.85,WNW,287,0.0,4.0,89,0.00,,---,0.28,VWS V14.00,2013-09-03 00:05:00,
2013-09-02 20:10:00,75.6,72.1,29.85,WNW,287,0.0,4.0,89,0.00,,---,0.28,VWS V14.00,2013-09-03 00:10:00,
2013-09-02 20:15:00,75.8,72.7,29.86,WNW,287,0.0,4.0,90,0.00,,---,0.28,VWS V14.00,2013-09-03 00:15:00,
2013-09-02 20:20:00,75.6,72.5,29.86,WNW,287,0.0,4.0,90,0.00,,---,0.28,VWS V14.00,2013-09-03 00:20:00,
2013-09-02 20:25:00,75.3,72.2,29.86,WNW,287,0.0,4.0,90,0.00,,---,0.28,VWS V14.00,2013-09-03 00:25:00,
2013-09-02 20:30:00,75.4,72.6,29.86,WNW,287,0.0,0.0,91,0.00,,---,0.28,VWS V14.00,2013-09-03 00:30:00,
2013-09-02 20:35:00,75.3,72.8,29.85,WSW,255,0.0,0.0,92,0.00,,---,0.28,VWS V14.00,2013-09-03 00:35:00,
2013-09-02 20:40:00,75.2,72.7,29.85,WSW,254,0.0,0.0,92,0.00,,---,0.28,VWS V14.00,2013-09-03 00:40:00,
2013-09-02 20:45:00,75.1,72.9,29.85,WSW,254,0.0,0.0,93,0.00,,---,0.28,VWS V14.00,2013-09-03 00:45:00,
2013-09-02 20:50:00,75.3,73.5,29.85,WSW,237,2.0,3.0,94,0.00,,---,0.28,VWS V14.00,2013-09-03 00:50:00,
2013-09-02 20:55:00,75.7,73.8,29.85,South,189,6.0,6.0,94,0.00,,---,0.28,VWS V14.00,2013-09-03 00:55:00,
2013-09-02 21:00:00,76.2,74.7,29.86,South,184,3.0,5.0,95,0.00,,---,0.28,VWS V14.00,2013-09-03 01:00:00,
2013-09-02 21:05:00,76.4,74.9,29.86,SSW,208,5.0,5.0,95,0.00,,---,0.28,VWS V14.00,2013-09-03 01:05:00,
2013-09-02 21:10:00,76.7,75.2,29.86,SSW,197,3.0,6.0,95,0.00,,---,0.28,VWS V14.00,2013-09-03 01:10:00,
2013-09-02 21:15:00,77.0,75.5,29.86,SSW,206,4.0,6.0,95,0.00,,---,0.28,VWS V14.00,2013-09-03 01:15:00,
2013-09-02 21:20:00,77.3,75.8,29.86,SSW,196,6.0,8.0,95,0.00,,---,0.28,VWS V14.00,2013-09-03 01:20:00,
2013-09-02 21:25:00,77.6,76.1,29.85,SSW,204,5.0,9.0,95,0.00,,---,0.28,VWS V14.00,2013-09-03 01:25:00,
2013-09-02 21:30:00,77.8,76.3,29.86,SSW,204,4.0,8.0,95,0.00,,---,0.28,VWS V14.00,2013-09-03 01:30:00,
2013-09-02 21:35:00,77.8,76.3,29.86,SSW,197,5.0,8.0,95,0.00,,---,0.28,VWS V14.00,2013-09-03 01:35:00,
2013-09-02 21:40:00,77.9,76.4,29.86,SSW,206,6.0,9.0,95,0.00,,---,0.28,VWS V14.00,2013-09-03 01:40:00,
2013-09-02 21:45:00,77.9,76.4,29.86,SSW,193,5.0,9.0,95,0.00,,---,0.28,VWS V14.00,2013-09-03 01:45:00,
2013-09-02 21:50:00,78.0,76.5,29.86,SSW,209,5.0,9.0,95,0.00,,---,0.28,VWS V14.00,2013-09-03 01:50:00,
2013-09-02 21:55:00,78.1,76.6,29.86,SSW,206,5.0,9.0,95,0.00,,---,0.28,VWS V14.00,2013-09-03 01:55:00,
2013-09-02 22:00:00,78.1,76.6,29.85,SSW,210,3.0,8.0,95,0.00,,---,0.28,VWS V14.00,2013-09-03 02:00:00,
2013-09-02 22:05:00,78.1,76.6,29.85,SSW,202,2.0,9.0,95,0.00,,---,0.28,VWS V14.00,2013-09-03 02:05:00,
2013-09-02 22:10:00,78.1,76.6,29.86,South,191,6.0,9.0,95,0.00,,---,0.28,VWS V14.00,2013-09-03 02:10:00,
2013-09-02 22:15:00,78.1,76.6,29.86,South,179,4.0,9.0,95,0.00,,---,0.28,VWS V14.00,2013-09-03 02:15:00,
2013-09-02 22:20:00,78.1,76.6,29.86,SW,214,5.0,9.0,95,0.00,,---,0.28,VWS V14.00,2013-09-03 02:20:00,
2013-09-02 22:25:00,78.1,76.6,29.86,SSW,212,5.0,9.0,95,0.00,,---,0.28,VWS V14.00,2013-09-03 02:25:00,
2013-09-02 22:30:00,78.1,76.6,29.86,SW,218,6.0,9.0,95,0.00,,---,0.28,VWS V14.00,2013-09-03 02:30:00,
2013-09-02 22:35:00,78.1,76.6,29.86,SSW,212,7.0,9.0,95,0.00,,---,0.28,VWS V14.00,2013-09-03 02:35:00,
2013-09-02 22:40:00,78.1,76.6,29.87,SSW,211,4.0,9.0,95,0.00,,---,0.28,VWS V14.00,2013-09-03 02:40:00,
2013-09-02 22:45:00,78.0,76.5,29.87,SW,223,6.0,9.0,95,0.00,,---,0.28,VWS V14.00,2013-09-03 02:45:00,
2013-09-02 22:50:00,78.0,76.5,29.87,SW,220,3.0,9.0,95,0.00,,---,0.28,VWS V14.00,2013-09-03 02:50:00,
2013-09-02 22:55:00,78.0,76.5,29.87,SSW,204,5.0,9.0,95,0.00,,---,0.28,VWS V14.00,2013-09-03 02:55:00,
2013-09-02 23:00:00,78.0,76.5,29.87,SW,224,6.0,9.0,95,0.00,,---,0.28,VWS V14.00,2013-09-03 03:00:00,
2013-09-02 23:05:00,78.0,76.5,29.87,SSW,204,4.0,9.0,95,0.00,,---,0.28,VWS V14.00,2013-09-03 03:05:00,
2013-09-02 23:10:00,78.0,76.5,29.87,SW,219,4.0,9.0,95,0.00,,---,0.28,VWS V14.00,2013-09-03 03:10:00,
2013-09-02 23:15:00,77.9,76.4,29.87,SW,215,5.0,10.0,95,0.00,,---,0.28,VWS V14.00,2013-09-03 03:15:00,
2013-09-02 23:20:00,77.9,76.4,29.87,SSW,210,5.0,10.0,95,0.00,,---,0.28,VWS V14.00,2013-09-03 03:20:00,
2013-09-02 23:25:00,78.0,76.1,29.87,SW,225,4.0,10.0,94,0.00,,---,0.28,VWS V14.00,2013-09-03 03:25:00,
2013-09-02 23:30:00,78.0,76.1,29.87,SW,215,3.0,7.0,94,0.00,,---,0.28,VWS V14.00,2013-09-03 03:30:00,
2013-09-02 23:35:00,78.0,76.1,29.87,SSW,195,5.0,9.0,94,0.00,,---,0.28,VWS V14.00,2013-09-03 03:35:00,
2013-09-02 23:40:00,77.9,76.0,29.87,SW,216,4.0,9.0,94,0.00,,---,0.28,VWS V14.00,2013-09-03 03:40:00,
2013-09-02 23:45:00,77.8,75.9,29.87,SSW,210,3.0,9.0,94,0.00,,---,0.28,VWS V14.00,2013-09-03 03:45:00,
2013-09-02 23:50:00,77.8,75.9,29.87,SSW,206,4.0,9.0,94,0.00,,---,0.28,VWS V14.00,2013-09-03 03:50:00,
2013-09-02 23:55:00,77.8,75.9,29.86,SSW,201,4.0,9.0,94,0.00,,---,0.28,VWS V14.00,2013-09-03 03:55:00,